sensor_id;sensor_type;location;lat;lon;timestamp;P1;durP1;ratioP1;P2;durP2;ratioP2
67776;SDS011;54576;52.020;5.536;2023-05-10T00:02:06;57.70;;;31.05;;
67776;SDS011;54576;52.020;5.536;2023-05-10T00:04:32;63.60;;;32.85;;
67776;SDS011;54576;52.020;5.536;2023-05-10T00:06:58;58.10;;;30.83;;
67776;SDS011;54576;52.020;5.536;2023-05-10T00:09:24;65.70;;;32.40;;
67776;SDS011;54576;52.020;5.536;2023-05-10T00:11:49;59.22;;;33.40;;
67776;SDS011;54576;52.020;5.536;2023-05-10T00:14:15;67.15;;;33.75;;
67776;SDS011;54576;52.020;5.536;2023-05-10T00:16:41;71.57;;;32.95;;
67776;SDS011;54576;52.020;5.536;2023-05-10T00:19:06;66.07;;;32.22;;
67776;SDS011;54576;52.020;5.536;2023-05-10T00:21:32;65.05;;;33.97;;
67776;SDS011;54576;52.020;5.536;2023-05-10T00:23:58;64.20;;;33.83;;
67776;SDS011;54576;52.020;5.536;2023-05-10T00:26:24;56.78;;;31.20;;
67776;SDS011;54576;52.020;5.536;2023-05-10T00:28:50;64.20;;;34.65;;
67776;SDS011;54576;52.020;5.536;2023-05-10T00:31:15;70.82;;;36.03;;
67776;SDS011;54576;52.020;5.536;2023-05-10T00:33:41;69.85;;;35.30;;
67776;SDS011;54576;52.020;5.536;2023-05-10T00:36:07;72.80;;;36.90;;
67776;SDS011;54576;52.020;5.536;2023-05-10T00:38:33;60.55;;;32.17;;
67776;SDS011;54576;52.020;5.536;2023-05-10T00:40:58;62.63;;;31.80;;
67776;SDS011;54576;52.020;5.536;2023-05-10T00:43:24;57.78;;;30.17;;
67776;SDS011;54576;52.020;5.536;2023-05-10T00:45:49;78.15;;;35.08;;
67776;SDS011;54576;52.020;5.536;2023-05-10T00:48:15;61.45;;;32.67;;
67776;SDS011;54576;52.020;5.536;2023-05-10T00:50:41;67.88;;;33.08;;
67776;SDS011;54576;52.020;5.536;2023-05-10T00:53:07;67.55;;;33.72;;
67776;SDS011;54576;52.020;5.536;2023-05-10T00:55:33;74.68;;;34.03;;
67776;SDS011;54576;52.020;5.536;2023-05-10T00:57:59;64.38;;;32.45;;
67776;SDS011;54576;52.020;5.536;2023-05-10T01:00:24;57.15;;;31.30;;
67776;SDS011;54576;52.020;5.536;2023-05-10T01:02:50;60.13;;;31.90;;
67776;SDS011;54576;52.020;5.536;2023-05-10T01:05:18;55.10;;;30.15;;
67776;SDS011;54576;52.020;5.536;2023-05-10T01:07:46;73.38;;;34.17;;
67776;SDS011;54576;52.020;5.536;2023-05-10T01:12:39;59.10;;;30.45;;
67776;SDS011;54576;52.020;5.536;2023-05-10T01:15:07;60.05;;;30.02;;
67776;SDS011;54576;52.020;5.536;2023-05-10T01:17:34;59.38;;;31.30;;
67776;SDS011;54576;52.020;5.536;2023-05-10T01:20:02;69.30;;;31.05;;
67776;SDS011;54576;52.020;5.536;2023-05-10T01:26:07;67.05;;;32.13;;
67776;SDS011;54576;52.020;5.536;2023-05-10T01:28:16;69.32;;;31.75;;
67776;SDS011;54576;52.020;5.536;2023-05-10T01:31:05;64.93;;;31.60;;
67776;SDS011;54576;52.020;5.536;2023-05-10T01:33:49;62.75;;;31.02;;
67776;SDS011;54576;52.020;5.536;2023-05-10T01:36:28;71.00;;;32.50;;
67776;SDS011;54576;52.020;5.536;2023-05-10T01:39:06;64.32;;;31.98;;
67776;SDS011;54576;52.020;5.536;2023-05-10T01:41:51;61.92;;;29.85;;
67776;SDS011;54576;52.020;5.536;2023-05-10T01:47:11;67.88;;;31.10;;
67776;SDS011;54576;52.020;5.536;2023-05-10T01:50:02;66.93;;;32.22;;
67776;SDS011;54576;52.020;5.536;2023-05-10T01:55:01;77.05;;;33.90;;
67776;SDS011;54576;52.020;5.536;2023-05-10T01:57:34;64.57;;;33.78;;
67776;SDS011;54576;52.020;5.536;2023-05-10T02:00:02;71.18;;;31.58;;
67776;SDS011;54576;52.020;5.536;2023-05-10T02:02:29;75.47;;;33.80;;
67776;SDS011;54576;52.020;5.536;2023-05-10T02:05:04;77.13;;;36.17;;
67776;SDS011;54576;52.020;5.536;2023-05-10T02:07:31;78.65;;;36.90;;
67776;SDS011;54576;52.020;5.536;2023-05-10T02:10:00;74.00;;;33.10;;
67776;SDS011;54576;52.020;5.536;2023-05-10T02:12:31;84.82;;;36.20;;
67776;SDS011;54576;52.020;5.536;2023-05-10T02:17:26;86.57;;;38.00;;
67776;SDS011;54576;52.020;5.536;2023-05-10T02:19:53;71.30;;;33.50;;
67776;SDS011;54576;52.020;5.536;2023-05-10T02:22:20;86.40;;;37.83;;
67776;SDS011;54576;52.020;5.536;2023-05-10T02:24:47;74.07;;;35.97;;
67776;SDS011;54576;52.020;5.536;2023-05-10T02:27:14;88.10;;;38.83;;
67776;SDS011;54576;52.020;5.536;2023-05-10T02:29:41;71.35;;;34.60;;
67776;SDS011;54576;52.020;5.536;2023-05-10T02:32:07;78.55;;;37.35;;
67776;SDS011;54576;52.020;5.536;2023-05-10T02:34:36;90.47;;;40.58;;
67776;SDS011;54576;52.020;5.536;2023-05-10T02:37:02;79.78;;;38.55;;
67776;SDS011;54576;52.020;5.536;2023-05-10T02:39:28;82.82;;;38.65;;
67776;SDS011;54576;52.020;5.536;2023-05-10T02:41:55;90.43;;;39.88;;
67776;SDS011;54576;52.020;5.536;2023-05-10T02:44:21;80.10;;;38.58;;
67776;SDS011;54576;52.020;5.536;2023-05-10T02:46:48;79.65;;;38.55;;
67776;SDS011;54576;52.020;5.536;2023-05-10T02:49:14;73.00;;;37.03;;
67776;SDS011;54576;52.020;5.536;2023-05-10T02:51:41;81.63;;;37.92;;
67776;SDS011;54576;52.020;5.536;2023-05-10T02:54:12;75.75;;;36.97;;
67776;SDS011;54576;52.020;5.536;2023-05-10T02:56:56;79.28;;;37.97;;
67776;SDS011;54576;52.020;5.536;2023-05-10T02:59:25;75.97;;;37.20;;
67776;SDS011;54576;52.020;5.536;2023-05-10T03:01:53;77.85;;;40.65;;
67776;SDS011;54576;52.020;5.536;2023-05-10T03:04:19;74.68;;;38.50;;
67776;SDS011;54576;52.020;5.536;2023-05-10T03:06:45;75.43;;;36.85;;
67776;SDS011;54576;52.020;5.536;2023-05-10T03:09:11;75.90;;;36.40;;
67776;SDS011;54576;52.020;5.536;2023-05-10T03:17:25;80.22;;;39.22;;
67776;SDS011;54576;52.020;5.536;2023-05-10T03:20:20;83.25;;;39.97;;
67776;SDS011;54576;52.020;5.536;2023-05-10T03:22:55;89.30;;;40.55;;
67776;SDS011;54576;52.020;5.536;2023-05-10T03:25:26;87.93;;;38.20;;
67776;SDS011;54576;52.020;5.536;2023-05-10T03:27:52;85.63;;;40.60;;
67776;SDS011;54576;52.020;5.536;2023-05-10T03:30:19;83.43;;;40.05;;
67776;SDS011;54576;52.020;5.536;2023-05-10T03:32:45;86.38;;;40.65;;
67776;SDS011;54576;52.020;5.536;2023-05-10T03:35:11;83.63;;;40.42;;
67776;SDS011;54576;52.020;5.536;2023-05-10T03:37:38;90.15;;;39.05;;
67776;SDS011;54576;52.020;5.536;2023-05-10T03:40:04;91.47;;;40.88;;
67776;SDS011;54576;52.020;5.536;2023-05-10T03:42:30;93.25;;;40.00;;
67776;SDS011;54576;52.020;5.536;2023-05-10T03:44:56;94.25;;;40.80;;
67776;SDS011;54576;52.020;5.536;2023-05-10T03:47:21;85.50;;;38.58;;
67776;SDS011;54576;52.020;5.536;2023-05-10T03:49:47;93.72;;;40.28;;
67776;SDS011;54576;52.020;5.536;2023-05-10T03:52:12;91.50;;;40.38;;
67776;SDS011;54576;52.020;5.536;2023-05-10T03:54:38;86.35;;;38.38;;
67776;SDS011;54576;52.020;5.536;2023-05-10T03:57:04;91.95;;;39.75;;
67776;SDS011;54576;52.020;5.536;2023-05-10T03:59:30;97.88;;;40.83;;
67776;SDS011;54576;52.020;5.536;2023-05-10T04:01:55;84.35;;;37.90;;
67776;SDS011;54576;52.020;5.536;2023-05-10T04:04:21;85.88;;;39.00;;
67776;SDS011;54576;52.020;5.536;2023-05-10T04:06:48;93.43;;;40.25;;
67776;SDS011;54576;52.020;5.536;2023-05-10T04:09:13;98.95;;;39.72;;
67776;SDS011;54576;52.020;5.536;2023-05-10T04:11:39;82.85;;;37.65;;
67776;SDS011;54576;52.020;5.536;2023-05-10T04:14:04;88.70;;;38.42;;
67776;SDS011;54576;52.020;5.536;2023-05-10T04:16:30;78.30;;;34.15;;
67776;SDS011;54576;52.020;5.536;2023-05-10T04:18:56;89.32;;;35.70;;
67776;SDS011;54576;52.020;5.536;2023-05-10T04:21:22;82.32;;;34.47;;
67776;SDS011;54576;52.020;5.536;2023-05-10T04:23:47;73.60;;;33.47;;
67776;SDS011;54576;52.020;5.536;2023-05-10T04:26:13;72.53;;;31.88;;
67776;SDS011;54576;52.020;5.536;2023-05-10T04:28:39;72.05;;;32.20;;
67776;SDS011;54576;52.020;5.536;2023-05-10T04:31:05;87.47;;;34.33;;
67776;SDS011;54576;52.020;5.536;2023-05-10T04:33:32;73.53;;;31.95;;
67776;SDS011;54576;52.020;5.536;2023-05-10T04:35:58;90.25;;;34.97;;
67776;SDS011;54576;52.020;5.536;2023-05-10T04:38:24;84.20;;;33.70;;
67776;SDS011;54576;52.020;5.536;2023-05-10T04:40:50;82.55;;;33.75;;
67776;SDS011;54576;52.020;5.536;2023-05-10T04:43:15;85.32;;;33.42;;
67776;SDS011;54576;52.020;5.536;2023-05-10T04:45:41;78.57;;;33.20;;
67776;SDS011;54576;52.020;5.536;2023-05-10T04:48:07;103.90;;;36.22;;
67776;SDS011;54576;52.020;5.536;2023-05-10T04:50:32;98.03;;;34.45;;
67776;SDS011;54576;52.020;5.536;2023-05-10T04:52:58;89.05;;;34.65;;
67776;SDS011;54576;52.020;5.536;2023-05-10T04:55:24;89.22;;;34.97;;
67776;SDS011;54576;52.020;5.536;2023-05-10T04:57:49;83.97;;;33.53;;
67776;SDS011;54576;52.020;5.536;2023-05-10T05:00:15;87.60;;;32.95;;
67776;SDS011;54576;52.020;5.536;2023-05-10T05:02:44;94.45;;;36.47;;
67776;SDS011;54576;52.020;5.536;2023-05-10T05:05:11;98.50;;;36.85;;
67776;SDS011;54576;52.020;5.536;2023-05-10T05:07:37;97.90;;;36.45;;
67776;SDS011;54576;52.020;5.536;2023-05-10T05:10:03;91.53;;;33.65;;
67776;SDS011;54576;52.020;5.536;2023-05-10T05:12:33;94.30;;;35.58;;
67776;SDS011;54576;52.020;5.536;2023-05-10T05:14:59;94.18;;;36.00;;
67776;SDS011;54576;52.020;5.536;2023-05-10T05:17:26;81.07;;;33.38;;
67776;SDS011;54576;52.020;5.536;2023-05-10T05:19:52;84.10;;;34.28;;
67776;SDS011;54576;52.020;5.536;2023-05-10T05:22:17;102.93;;;37.30;;
67776;SDS011;54576;52.020;5.536;2023-05-10T05:24:44;87.85;;;35.33;;
67776;SDS011;54576;52.020;5.536;2023-05-10T05:27:10;83.18;;;35.42;;
67776;SDS011;54576;52.020;5.536;2023-05-10T05:29:35;97.00;;;35.45;;
67776;SDS011;54576;52.020;5.536;2023-05-10T05:32:01;78.00;;;35.72;;
67776;SDS011;54576;52.020;5.536;2023-05-10T05:34:26;87.00;;;35.63;;
67776;SDS011;54576;52.020;5.536;2023-05-10T05:36:52;88.85;;;35.72;;
67776;SDS011;54576;52.020;5.536;2023-05-10T05:39:18;88.93;;;37.72;;
67776;SDS011;54576;52.020;5.536;2023-05-10T05:41:44;89.70;;;35.92;;
67776;SDS011;54576;52.020;5.536;2023-05-10T05:44:11;83.68;;;33.13;;
67776;SDS011;54576;52.020;5.536;2023-05-10T05:46:36;79.90;;;33.60;;
67776;SDS011;54576;52.020;5.536;2023-05-10T05:49:02;94.43;;;38.00;;
67776;SDS011;54576;52.020;5.536;2023-05-10T05:51:27;93.38;;;38.63;;
67776;SDS011;54576;52.020;5.536;2023-05-10T05:53:53;87.47;;;36.33;;
67776;SDS011;54576;52.020;5.536;2023-05-10T05:56:19;88.95;;;37.42;;
67776;SDS011;54576;52.020;5.536;2023-05-10T05:58:49;96.30;;;37.17;;
67776;SDS011;54576;52.020;5.536;2023-05-10T06:01:15;93.45;;;38.20;;
67776;SDS011;54576;52.020;5.536;2023-05-10T06:03:41;91.18;;;37.75;;
67776;SDS011;54576;52.020;5.536;2023-05-10T06:06:06;96.30;;;38.08;;
67776;SDS011;54576;52.020;5.536;2023-05-10T06:08:32;105.93;;;39.83;;
67776;SDS011;54576;52.020;5.536;2023-05-10T06:10:58;94.10;;;36.83;;
67776;SDS011;54576;52.020;5.536;2023-05-10T06:13:24;96.30;;;38.15;;
67776;SDS011;54576;52.020;5.536;2023-05-10T06:15:53;92.22;;;37.60;;
67776;SDS011;54576;52.020;5.536;2023-05-10T06:18:19;92.95;;;37.97;;
67776;SDS011;54576;52.020;5.536;2023-05-10T06:20:44;105.15;;;36.40;;
67776;SDS011;54576;52.020;5.536;2023-05-10T06:23:10;101.47;;;37.75;;
67776;SDS011;54576;52.020;5.536;2023-05-10T06:25:38;85.20;;;36.03;;
67776;SDS011;54576;52.020;5.536;2023-05-10T06:28:04;103.22;;;39.78;;
67776;SDS011;54576;52.020;5.536;2023-05-10T06:30:29;99.30;;;37.70;;
67776;SDS011;54576;52.020;5.536;2023-05-10T06:32:55;90.38;;;38.80;;
67776;SDS011;54576;52.020;5.536;2023-05-10T06:35:21;104.13;;;39.47;;
67776;SDS011;54576;52.020;5.536;2023-05-10T06:37:46;78.60;;;35.20;;
67776;SDS011;54576;52.020;5.536;2023-05-10T06:40:12;102.43;;;38.42;;
67776;SDS011;54576;52.020;5.536;2023-05-10T06:42:37;92.82;;;39.95;;
67776;SDS011;54576;52.020;5.536;2023-05-10T06:45:03;83.47;;;36.63;;
67776;SDS011;54576;52.020;5.536;2023-05-10T06:47:30;92.32;;;37.45;;
67776;SDS011;54576;52.020;5.536;2023-05-10T06:49:56;104.40;;;41.78;;
67776;SDS011;54576;52.020;5.536;2023-05-10T06:52:22;92.72;;;39.60;;
67776;SDS011;54576;52.020;5.536;2023-05-10T06:54:48;97.32;;;42.05;;
67776;SDS011;54576;52.020;5.536;2023-05-10T06:57:13;99.75;;;39.72;;
67776;SDS011;54576;52.020;5.536;2023-05-10T06:59:39;65.18;;;30.88;;
67776;SDS011;54576;52.020;5.536;2023-05-10T07:02:04;88.90;;;38.67;;
67776;SDS011;54576;52.020;5.536;2023-05-10T07:04:30;101.18;;;41.72;;
67776;SDS011;54576;52.020;5.536;2023-05-10T07:06:56;88.50;;;40.58;;
67776;SDS011;54576;52.020;5.536;2023-05-10T07:09:22;87.32;;;39.30;;
67776;SDS011;54576;52.020;5.536;2023-05-10T07:11:49;99.15;;;41.00;;
67776;SDS011;54576;52.020;5.536;2023-05-10T07:14:15;81.07;;;36.00;;
67776;SDS011;54576;52.020;5.536;2023-05-10T07:16:40;76.05;;;33.72;;
67776;SDS011;54576;52.020;5.536;2023-05-10T07:19:06;74.47;;;34.85;;
67776;SDS011;54576;52.020;5.536;2023-05-10T07:21:32;69.82;;;33.53;;
67776;SDS011;54576;52.020;5.536;2023-05-10T07:23:57;57.00;;;29.05;;
67776;SDS011;54576;52.020;5.536;2023-05-10T07:26:23;58.33;;;29.08;;
67776;SDS011;54576;52.020;5.536;2023-05-10T07:28:49;50.05;;;25.73;;
67776;SDS011;54576;52.020;5.536;2023-05-10T07:31:14;50.22;;;26.60;;
67776;SDS011;54576;52.020;5.536;2023-05-10T07:33:40;58.90;;;26.48;;
67776;SDS011;54576;52.020;5.536;2023-05-10T07:36:05;49.05;;;24.13;;
67776;SDS011;54576;52.020;5.536;2023-05-10T07:38:31;51.45;;;24.23;;
67776;SDS011;54576;52.020;5.536;2023-05-10T07:40:57;47.88;;;24.90;;
67776;SDS011;54576;52.020;5.536;2023-05-10T07:43:22;43.75;;;22.98;;
67776;SDS011;54576;52.020;5.536;2023-05-10T07:45:48;38.95;;;21.65;;
67776;SDS011;54576;52.020;5.536;2023-05-10T07:48:13;30.05;;;17.38;;
67776;SDS011;54576;52.020;5.536;2023-05-10T07:50:42;31.55;;;16.60;;
67776;SDS011;54576;52.020;5.536;2023-05-10T07:53:08;34.20;;;17.63;;
67776;SDS011;54576;52.020;5.536;2023-05-10T07:55:33;36.72;;;19.83;;
67776;SDS011;54576;52.020;5.536;2023-05-10T07:57:59;29.52;;;17.67;;
67776;SDS011;54576;52.020;5.536;2023-05-10T08:00:26;26.13;;;15.90;;
67776;SDS011;54576;52.020;5.536;2023-05-10T08:02:51;26.13;;;14.07;;
67776;SDS011;54576;52.020;5.536;2023-05-10T08:05:17;23.98;;;12.35;;
67776;SDS011;54576;52.020;5.536;2023-05-10T08:07:43;19.05;;;11.30;;
67776;SDS011;54576;52.020;5.536;2023-05-10T08:10:09;15.68;;;9.57;;
67776;SDS011;54576;52.020;5.536;2023-05-10T08:12:36;17.38;;;10.40;;
67776;SDS011;54576;52.020;5.536;2023-05-10T08:15:02;16.23;;;10.32;;
67776;SDS011;54576;52.020;5.536;2023-05-10T08:17:28;23.08;;;9.68;;
67776;SDS011;54576;52.020;5.536;2023-05-10T08:19:54;19.27;;;10.43;;
67776;SDS011;54576;52.020;5.536;2023-05-10T08:22:19;17.73;;;10.50;;
67776;SDS011;54576;52.020;5.536;2023-05-10T08:24:45;15.63;;;9.60;;
67776;SDS011;54576;52.020;5.536;2023-05-10T08:27:10;20.50;;;11.10;;
67776;SDS011;54576;52.020;5.536;2023-05-10T08:29:36;17.35;;;9.55;;
67776;SDS011;54576;52.020;5.536;2023-05-10T08:32:02;19.05;;;10.93;;
67776;SDS011;54576;52.020;5.536;2023-05-10T08:34:28;15.98;;;11.15;;
67776;SDS011;54576;52.020;5.536;2023-05-10T08:36:54;19.05;;;10.93;;
67776;SDS011;54576;52.020;5.536;2023-05-10T08:39:19;16.42;;;10.48;;
67776;SDS011;54576;52.020;5.536;2023-05-10T08:41:45;16.90;;;10.80;;
67776;SDS011;54576;52.020;5.536;2023-05-10T08:44:12;19.10;;;10.50;;
67776;SDS011;54576;52.020;5.536;2023-05-10T08:46:40;18.48;;;10.57;;
67776;SDS011;54576;52.020;5.536;2023-05-10T08:49:11;21.60;;;11.50;;
67776;SDS011;54576;52.020;5.536;2023-05-10T08:51:42;19.83;;;11.13;;
67776;SDS011;54576;52.020;5.536;2023-05-10T08:54:11;24.67;;;11.00;;
67776;SDS011;54576;52.020;5.536;2023-05-10T08:56:38;20.13;;;10.90;;
67776;SDS011;54576;52.020;5.536;2023-05-10T08:59:03;13.88;;;9.73;;
67776;SDS011;54576;52.020;5.536;2023-05-10T09:01:29;16.90;;;9.05;;
67776;SDS011;54576;52.020;5.536;2023-05-10T09:03:57;17.43;;;10.50;;
67776;SDS011;54576;52.020;5.536;2023-05-10T09:06:23;14.30;;;8.63;;
67776;SDS011;54576;52.020;5.536;2023-05-10T09:08:49;14.50;;;8.65;;
67776;SDS011;54576;52.020;5.536;2023-05-10T09:11:15;10.77;;;7.47;;
67776;SDS011;54576;52.020;5.536;2023-05-10T09:13:41;10.82;;;7.93;;
67776;SDS011;54576;52.020;5.536;2023-05-10T09:16:08;15.23;;;8.40;;
67776;SDS011;54576;52.020;5.536;2023-05-10T09:18:34;12.63;;;8.20;;
67776;SDS011;54576;52.020;5.536;2023-05-10T09:20:59;16.23;;;8.98;;
67776;SDS011;54576;52.020;5.536;2023-05-10T09:23:25;15.80;;;8.60;;
67776;SDS011;54576;52.020;5.536;2023-05-10T09:26:06;13.40;;;8.13;;
67776;SDS011;54576;52.020;5.536;2023-05-10T09:28:34;14.60;;;8.70;;
67776;SDS011;54576;52.020;5.536;2023-05-10T09:31:19;13.23;;;8.43;;
67776;SDS011;54576;52.020;5.536;2023-05-10T09:33:45;14.25;;;8.52;;
67776;SDS011;54576;52.020;5.536;2023-05-10T09:36:12;14.82;;;8.25;;
67776;SDS011;54576;52.020;5.536;2023-05-10T09:38:47;11.77;;;8.02;;
67776;SDS011;54576;52.020;5.536;2023-05-10T09:41:21;12.80;;;8.30;;
67776;SDS011;54576;52.020;5.536;2023-05-10T09:43:48;15.10;;;8.63;;
67776;SDS011;54576;52.020;5.536;2023-05-10T09:46:14;14.63;;;7.65;;
67776;SDS011;54576;52.020;5.536;2023-05-10T09:48:47;12.85;;;8.27;;
67776;SDS011;54576;52.020;5.536;2023-05-10T09:51:19;11.43;;;8.10;;
67776;SDS011;54576;52.020;5.536;2023-05-10T09:53:48;16.35;;;8.40;;
67776;SDS011;54576;52.020;5.536;2023-05-10T09:56:33;14.50;;;7.45;;
67776;SDS011;54576;52.020;5.536;2023-05-10T09:59:03;10.55;;;7.78;;
67776;SDS011;54576;52.020;5.536;2023-05-10T10:01:29;10.95;;;7.45;;
67776;SDS011;54576;52.020;5.536;2023-05-10T10:03:55;11.13;;;7.68;;
67776;SDS011;54576;52.020;5.536;2023-05-10T10:06:23;13.70;;;8.43;;
67776;SDS011;54576;52.020;5.536;2023-05-10T10:08:49;14.75;;;7.65;;
67776;SDS011;54576;52.020;5.536;2023-05-10T10:11:15;12.27;;;9.15;;
67776;SDS011;54576;52.020;5.536;2023-05-10T10:13:41;15.32;;;8.18;;
67776;SDS011;54576;52.020;5.536;2023-05-10T10:16:09;10.85;;;7.20;;
67776;SDS011;54576;52.020;5.536;2023-05-10T10:18:35;10.23;;;6.70;;
67776;SDS011;54576;52.020;5.536;2023-05-10T10:21:04;8.45;;;6.68;;
67776;SDS011;54576;52.020;5.536;2023-05-10T10:23:39;9.02;;;6.35;;
67776;SDS011;54576;52.020;5.536;2023-05-10T10:26:04;11.93;;;7.05;;
67776;SDS011;54576;52.020;5.536;2023-05-10T10:31:17;14.20;;;6.95;;
67776;SDS011;54576;52.020;5.536;2023-05-10T10:36:22;12.40;;;6.97;;
67776;SDS011;54576;52.020;5.536;2023-05-10T10:57:26;13.02;;;6.90;;
67776;SDS011;54576;52.020;5.536;2023-05-10T11:02:44;10.13;;;6.95;;
67776;SDS011;54576;52.020;5.536;2023-05-10T11:08:07;14.07;;;5.90;;
67776;SDS011;54576;52.020;5.536;2023-05-10T11:10:35;11.80;;;6.38;;
67776;SDS011;54576;52.020;5.536;2023-05-10T11:13:02;8.95;;;6.05;;
67776;SDS011;54576;52.020;5.536;2023-05-10T11:15:31;7.13;;;6.43;;
67776;SDS011;54576;52.020;5.536;2023-05-10T11:17:58;11.40;;;5.90;;
67776;SDS011;54576;52.020;5.536;2023-05-10T11:20:26;10.80;;;5.93;;
67776;SDS011;54576;52.020;5.536;2023-05-10T11:22:58;14.05;;;6.00;;
67776;SDS011;54576;52.020;5.536;2023-05-10T11:25:40;7.45;;;5.97;;
67776;SDS011;54576;52.020;5.536;2023-05-10T11:28:09;10.43;;;6.75;;
67776;SDS011;54576;52.020;5.536;2023-05-10T11:33:04;9.18;;;6.20;;
67776;SDS011;54576;52.020;5.536;2023-05-10T11:35:31;12.27;;;6.53;;
67776;SDS011;54576;52.020;5.536;2023-05-10T11:38:04;8.13;;;5.80;;
67776;SDS011;54576;52.020;5.536;2023-05-10T11:40:31;12.32;;;6.47;;
67776;SDS011;54576;52.020;5.536;2023-05-10T11:42:56;16.55;;;6.35;;
67776;SDS011;54576;52.020;5.536;2023-05-10T11:45:23;12.20;;;6.15;;
67776;SDS011;54576;52.020;5.536;2023-05-10T11:47:49;8.93;;;6.20;;
67776;SDS011;54576;52.020;5.536;2023-05-10T11:50:15;9.57;;;6.55;;
67776;SDS011;54576;52.020;5.536;2023-05-10T11:52:42;9.75;;;5.72;;
67776;SDS011;54576;52.020;5.536;2023-05-10T11:55:07;7.18;;;5.05;;
67776;SDS011;54576;52.020;5.536;2023-05-10T11:57:33;10.65;;;5.10;;
67776;SDS011;54576;52.020;5.536;2023-05-10T11:59:58;8.93;;;4.90;;
67776;SDS011;54576;52.020;5.536;2023-05-10T12:02:24;7.53;;;4.97;;
67776;SDS011;54576;52.020;5.536;2023-05-10T12:04:50;8.65;;;5.57;;
67776;SDS011;54576;52.020;5.536;2023-05-10T12:07:16;7.38;;;4.63;;
67776;SDS011;54576;52.020;5.536;2023-05-10T12:10:02;5.47;;;4.82;;
67776;SDS011;54576;52.020;5.536;2023-05-10T12:12:35;8.02;;;5.60;;
67776;SDS011;54576;52.020;5.536;2023-05-10T12:15:06;7.13;;;5.40;;
67776;SDS011;54576;52.020;5.536;2023-05-10T12:17:37;6.88;;;4.88;;
67776;SDS011;54576;52.020;5.536;2023-05-10T12:20:16;9.38;;;4.57;;
67776;SDS011;54576;52.020;5.536;2023-05-10T12:25:09;7.32;;;4.43;;
67776;SDS011;54576;52.020;5.536;2023-05-10T12:27:38;5.45;;;4.03;;
67776;SDS011;54576;52.020;5.536;2023-05-10T12:30:04;7.93;;;4.13;;
67776;SDS011;54576;52.020;5.536;2023-05-10T12:32:43;6.00;;;3.92;;
67776;SDS011;54576;52.020;5.536;2023-05-10T12:35:09;6.43;;;3.40;;
67776;SDS011;54576;52.020;5.536;2023-05-10T12:37:35;5.18;;;2.83;;
67776;SDS011;54576;52.020;5.536;2023-05-10T12:40:07;4.90;;;3.22;;
67776;SDS011;54576;52.020;5.536;2023-05-10T12:42:35;3.80;;;2.90;;
67776;SDS011;54576;52.020;5.536;2023-05-10T12:45:02;9.82;;;3.45;;
67776;SDS011;54576;52.020;5.536;2023-05-10T12:47:28;6.00;;;3.13;;
67776;SDS011;54576;52.020;5.536;2023-05-10T12:49:55;4.05;;;2.95;;
67776;SDS011;54576;52.020;5.536;2023-05-10T12:52:20;5.40;;;2.63;;
67776;SDS011;54576;52.020;5.536;2023-05-10T12:54:46;4.10;;;2.83;;
67776;SDS011;54576;52.020;5.536;2023-05-10T12:57:12;5.13;;;2.80;;
67776;SDS011;54576;52.020;5.536;2023-05-10T12:59:38;4.03;;;2.55;;
67776;SDS011;54576;52.020;5.536;2023-05-10T13:02:04;8.88;;;3.97;;
67776;SDS011;54576;52.020;5.536;2023-05-10T13:04:30;5.70;;;4.93;;
67776;SDS011;54576;52.020;5.536;2023-05-10T13:06:56;11.50;;;5.32;;
67776;SDS011;54576;52.020;5.536;2023-05-10T13:09:23;11.15;;;6.25;;
67776;SDS011;54576;52.020;5.536;2023-05-10T13:11:50;8.82;;;6.80;;
67776;SDS011;54576;52.020;5.536;2023-05-10T13:14:16;10.55;;;7.38;;
67776;SDS011;54576;52.020;5.536;2023-05-10T13:16:42;5.80;;;5.25;;
67776;SDS011;54576;52.020;5.536;2023-05-10T13:19:07;8.10;;;4.43;;
67776;SDS011;54576;52.020;5.536;2023-05-10T13:21:33;6.60;;;4.38;;
67776;SDS011;54576;52.020;5.536;2023-05-10T13:23:58;4.93;;;4.28;;
67776;SDS011;54576;52.020;5.536;2023-05-10T13:26:25;11.25;;;4.63;;
67776;SDS011;54576;52.020;5.536;2023-05-10T13:28:51;8.15;;;4.75;;
67776;SDS011;54576;52.020;5.536;2023-05-10T13:31:16;13.50;;;5.10;;
67776;SDS011;54576;52.020;5.536;2023-05-10T13:33:42;6.60;;;4.30;;
67776;SDS011;54576;52.020;5.536;2023-05-10T13:36:07;7.30;;;4.70;;
67776;SDS011;54576;52.020;5.536;2023-05-10T13:38:33;6.63;;;4.47;;
67776;SDS011;54576;52.020;5.536;2023-05-10T13:40:58;10.30;;;5.10;;
67776;SDS011;54576;52.020;5.536;2023-05-10T13:43:24;8.40;;;4.90;;
67776;SDS011;54576;52.020;5.536;2023-05-10T13:45:50;6.32;;;4.85;;
67776;SDS011;54576;52.020;5.536;2023-05-10T13:48:15;5.95;;;4.97;;
67776;SDS011;54576;52.020;5.536;2023-05-10T13:50:41;7.15;;;4.50;;
67776;SDS011;54576;52.020;5.536;2023-05-10T13:53:06;7.63;;;5.30;;
67776;SDS011;54576;52.020;5.536;2023-05-10T13:55:32;7.13;;;6.18;;
67776;SDS011;54576;52.020;5.536;2023-05-10T13:57:58;7.80;;;5.63;;
67776;SDS011;54576;52.020;5.536;2023-05-10T14:00:24;5.97;;;5.22;;
67776;SDS011;54576;52.020;5.536;2023-05-10T14:02:49;8.25;;;6.25;;
67776;SDS011;54576;52.020;5.536;2023-05-10T14:05:15;9.57;;;5.30;;
67776;SDS011;54576;52.020;5.536;2023-05-10T14:07:40;6.32;;;5.50;;
67776;SDS011;54576;52.020;5.536;2023-05-10T14:10:06;11.93;;;5.05;;
67776;SDS011;54576;52.020;5.536;2023-05-10T14:12:31;8.07;;;5.18;;
67776;SDS011;54576;52.020;5.536;2023-05-10T14:14:57;10.13;;;4.10;;
67776;SDS011;54576;52.020;5.536;2023-05-10T14:17:23;6.93;;;4.38;;
67776;SDS011;54576;52.020;5.536;2023-05-10T14:19:48;6.45;;;4.50;;
67776;SDS011;54576;52.020;5.536;2023-05-10T14:22:14;7.93;;;4.70;;
67776;SDS011;54576;52.020;5.536;2023-05-10T14:24:40;5.80;;;4.60;;
67776;SDS011;54576;52.020;5.536;2023-05-10T14:27:05;9.10;;;4.80;;
67776;SDS011;54576;52.020;5.536;2023-05-10T14:29:31;8.38;;;4.53;;
67776;SDS011;54576;52.020;5.536;2023-05-10T14:31:57;6.80;;;4.68;;
67776;SDS011;54576;52.020;5.536;2023-05-10T14:34:23;7.50;;;4.70;;
67776;SDS011;54576;52.020;5.536;2023-05-10T14:36:48;6.35;;;4.55;;
67776;SDS011;54576;52.020;5.536;2023-05-10T14:39:14;9.80;;;5.00;;
67776;SDS011;54576;52.020;5.536;2023-05-10T14:41:40;8.38;;;5.93;;
67776;SDS011;54576;52.020;5.536;2023-05-10T14:44:07;11.52;;;6.10;;
67776;SDS011;54576;52.020;5.536;2023-05-10T14:46:33;9.32;;;5.80;;
67776;SDS011;54576;52.020;5.536;2023-05-10T14:48:59;9.77;;;5.95;;
67776;SDS011;54576;52.020;5.536;2023-05-10T14:51:24;12.52;;;5.80;;
67776;SDS011;54576;52.020;5.536;2023-05-10T14:53:50;9.32;;;6.10;;
67776;SDS011;54576;52.020;5.536;2023-05-10T14:56:18;13.75;;;6.88;;
67776;SDS011;54576;52.020;5.536;2023-05-10T14:58:45;12.13;;;7.15;;
67776;SDS011;54576;52.020;5.536;2023-05-10T15:01:11;10.45;;;7.03;;
67776;SDS011;54576;52.020;5.536;2023-05-10T15:03:36;14.35;;;7.43;;
67776;SDS011;54576;52.020;5.536;2023-05-10T15:06:02;12.05;;;6.93;;
67776;SDS011;54576;52.020;5.536;2023-05-10T15:08:29;14.38;;;7.97;;
67776;SDS011;54576;52.020;5.536;2023-05-10T15:10:55;11.98;;;7.18;;
67776;SDS011;54576;52.020;5.536;2023-05-10T15:13:21;14.52;;;7.85;;
67776;SDS011;54576;52.020;5.536;2023-05-10T15:15:46;15.02;;;7.75;;
67776;SDS011;54576;52.020;5.536;2023-05-10T15:18:12;12.93;;;7.35;;
67776;SDS011;54576;52.020;5.536;2023-05-10T15:20:37;11.38;;;7.30;;
67776;SDS011;54576;52.020;5.536;2023-05-10T15:23:03;13.73;;;8.10;;